Бичи

Карта отелей и гостиниц, располагающихся рядом с аэропортом Бичи :



Бичи Хабаровский край 52° 21' 53.9388" N, 138° 37' 32.9988" E

Бичи Хабаровский край 52° 21' 53.9388" N, 138° 37' 32.9988" E
Код аэродрома ИКАО: 
HDZ7
Код аэродрома RU: 
ХДЗ7
Координаты: 
N52.36498° E138.62583°
Превышение над уровнем моря : 
142
Основная полоса: 
Курс магнитный: 
Длина основной ВПП: 
Ширина основной ВПП: 
Покрытие основной ВПП: 
Нетвёрдое (грунт)
Тип: 
Вертодром
Освещение ВПП: 
Нет
Класс аэродрома: 
Статус: 
Действующий
Принадлежность: 
ГА
Сайт: 
E-mail аэродрома: 
Страна: 
Россия
Регион: 
Хабаровский край
Город: 
Дополнительная информация: 
Оператор: нет данных.

Найти трансфер

С помощью этой формы Вы можете найти трансфер из аэропорта Бичи в город, аэропорт или вокзал:

Карта места

Javascript is required to view this map.

Погода в аэропортах:

Авиационная погода в Констанце

Регион: 
Погода METAR: 
LRCK 210400Z 01008KT 4000 BR BKN012 03/03 Q1020 TEMPO 3000 BR BKN010
Время наблюдения: 
2020-02-21T04:00:00Z
Температура C: 
3.0
Точка росы: 
3.0
Направление ветра: 
10
Скорость ветра: 
8
Метеорологическая видимость: 
2.49
Явления погоды: 
BR
Условия полета: 
IFR

Авиационная погода в Емельяново

Регион: 
Погода METAR: 
UNKL 210400Z 22003MPS 170V240 4300 -SN SCT047 M02/M05 Q1018 R29/490235 NOSIG RMK QFE738
Время наблюдения: 
2020-02-21T04:00:00Z
Температура C: 
-2.0
Точка росы: 
-5.0
Направление ветра: 
220
Скорость ветра: 
6
Метеорологическая видимость: 
2.67
Явления погоды: 
-SN
Условия полета: 
IFR
Аэропорт подробнее: 

Авиационная погода в Угольном

Регион: 
Погода METAR: 
UHMA 210400Z 34006MPS 9999 DRSN VCFG NSC M25/M28 Q1007 R01/60D NOSIG RMK TDZ R01/34006G07MPS END R01/35004G06MPS QFE752/1002
Время наблюдения: 
2020-02-21T04:00:00Z
Температура C: 
-25.0
Точка росы: 
-28.0
Направление ветра: 
340
Скорость ветра: 
12
Метеорологическая видимость: 
6.21
Явления погоды: 
DRSN VCFG
Условия полета: 
VFR
Аэропорт подробнее: 

Авиационная погода в Киркенесе

Регион: 
Погода METAR: 
ENKR 210350Z AUTO 17018KT 7000 -SN VV015 M07/M08 Q0986 RMK WIND 731FT 18032KT
Время наблюдения: 
2020-02-21T03:50:00Z
Температура C: 
-7.0
Точка росы: 
-8.0
Направление ветра: 
170
Скорость ветра: 
18
Метеорологическая видимость: 
4.35
Явления погоды: 
-SN
Условия полета: 
LIFR